Time,TemperatureF,DewpointF,PressureIn,WindDirection,WindDirectionDegrees,WindSpeedMPH,WindSpeedGustMPH,Humidity,HourlyPrecipIn,Conditions,Clouds,dailyrainin,SoftwareType,DateUTC
2013-05-24 00:01:00,58.6,54.1,29.93,SSE,166,1.0,3.0,85,0.00,,,0.00,WeatherCatV1.11B39,2013-05-24 04:01:00,
2013-05-24 00:06:00,58.7,53.9,29.94,SE,129,0.0,0.0,84,0.00,,,0.00,WeatherCatV1.11B39,2013-05-24 04:06:00,
2013-05-24 00:11:00,58.8,53.3,29.93,SE,146,0.0,2.0,82,0.00,,,0.00,WeatherCatV1.11B39,2013-05-24 04:11:00,
2013-05-24 00:16:00,58.8,54.3,29.94,North,356,0.0,0.0,85,0.00,,,0.00,WeatherCatV1.11B39,2013-05-24 04:16:00,
2013-05-24 00:21:00,58.8,53.3,29.94,NE,44,1.0,3.0,82,0.00,,,0.00,WeatherCatV1.11B39,2013-05-24 04:21:00,
2013-05-24 00:26:00,58.7,53.5,29.94,NNE,31,0.0,2.0,83,0.00,,,0.00,WeatherCatV1.11B39,2013-05-24 04:26:00,
2013-05-24 00:31:00,58.7,53.9,29.93,SSE,149,2.0,2.0,84,0.00,,,0.00,WeatherCatV1.11B39,2013-05-24 04:31:00,
2013-05-24 00:36:00,58.7,53.5,29.93,ENE,69,0.0,0.0,83,0.00,,,0.00,WeatherCatV1.11B39,2013-05-24 04:36:00,
2013-05-24 00:41:00,58.6,53.5,29.93,East,91,0.0,2.0,83,0.00,,,0.00,WeatherCatV1.11B39,2013-05-24 04:41:00,
2013-05-24 00:46:00,58.6,53.5,29.93,ESE,116,0.0,2.0,83,0.00,,,0.00,WeatherCatV1.11B39,2013-05-24 04:46:00,
2013-05-24 00:51:00,58.7,53.5,29.93,SE,141,3.0,3.0,83,0.00,,,0.00,WeatherCatV1.11B39,2013-05-24 04:51:00,
2013-05-24 00:56:00,58.7,53.5,29.93,NW,312,0.0,2.0,83,0.00,,,0.00,WeatherCatV1.11B39,2013-05-24 04:56:00,
2013-05-24 01:01:00,58.7,53.5,29.93,ENE,71,0.0,1.0,83,0.00,,,0.00,WeatherCatV1.11B39,2013-05-24 05:01:00,
2013-05-24 01:06:00,58.6,53.5,29.93,WNW,290,0.0,1.0,83,0.00,,,0.00,WeatherCatV1.11B39,2013-05-24 05:06:00,
2013-05-24 01:11:00,58.6,53.5,29.93,East,99,0.0,2.0,83,0.00,,,0.00,WeatherCatV1.11B39,2013-05-24 05:11:00,
2013-05-24 01:16:00,58.5,53.4,29.93,NE,47,0.0,2.0,83,0.00,,,0.00,WeatherCatV1.11B39,2013-05-24 05:16:00,
2013-05-24 01:21:00,58.4,53.6,29.93,ESE,115,0.0,0.0,84,0.00,,,0.00,WeatherCatV1.11B39,2013-05-24 05:21:00,
2013-05-24 01:26:00,58.3,53.2,29.92,ESE,111,0.0,1.0,83,0.00,,,0.00,WeatherCatV1.11B39,2013-05-24 05:26:00,
2013-05-24 01:31:00,58.3,53.8,29.92,ESE,114,0.0,0.0,85,0.00,,,0.00,WeatherCatV1.11B39,2013-05-24 05:31:00,
2013-05-24 01:36:00,58.2,54.0,29.92,SE,124,0.0,0.0,86,0.00,,,0.00,WeatherCatV1.11B39,2013-05-24 05:36:00,
2013-05-24 01:41:00,58.1,53.3,29.93,SE,132,1.0,1.0,84,0.00,,,0.00,WeatherCatV1.11B39,2013-05-24 05:41:00,
2013-05-24 01:46:00,58.1,53.3,29.93,ENE,68,1.0,1.0,84,0.00,,,0.00,WeatherCatV1.11B39,2013-05-24 05:46:00,
2013-05-24 01:51:00,58.1,53.3,29.93,SW,220,0.0,3.0,84,0.00,,,0.00,WeatherCatV1.11B39,2013-05-24 05:51:00,
2013-05-24 01:56:00,58.0,53.5,29.93,ESE,102,0.0,1.0,85,0.00,,,0.00,WeatherCatV1.11B39,2013-05-24 05:56:00,
2013-05-24 02:01:00,57.9,53.4,29.93,NE,44,1.0,3.0,85,0.00,,,0.00,WeatherCatV1.11B39,2013-05-24 06:01:00,
2013-05-24 02:06:00,57.8,53.3,29.93,SE,124,0.0,0.0,85,0.00,,,0.00,WeatherCatV1.11B39,2013-05-24 06:06:00,
2013-05-24 02:11:00,57.8,53.3,29.93,East,79,1.0,1.0,85,0.00,,,0.00,WeatherCatV1.11B39,2013-05-24 06:11:00,
2013-05-24 02:16:00,57.8,53.3,29.93,East,88,0.0,0.0,85,0.00,,,0.00,WeatherCatV1.11B39,2013-05-24 06:16:00,
2013-05-24 02:21:00,57.8,53.3,29.93,East,95,0.0,1.0,85,0.00,,,0.00,WeatherCatV1.11B39,2013-05-24 06:21:00,
2013-05-24 02:26:00,57.6,53.1,29.93,SE,137,0.0,1.0,85,0.00,,,0.00,WeatherCatV1.11B39,2013-05-24 06:26:00,
2013-05-24 02:31:00,57.5,53.0,29.93,ENE,72,1.0,2.0,85,0.00,,,0.00,WeatherCatV1.11B39,2013-05-24 06:31:00,
2013-05-24 02:36:00,57.3,53.1,29.93,NE,49,2.0,4.0,86,0.00,,,0.00,WeatherCatV1.11B39,2013-05-24 06:36:00,
2013-05-24 02:41:00,57.2,53.0,29.93,SSE,160,1.0,1.0,86,0.00,,,0.00,WeatherCatV1.11B39,2013-05-24 06:41:00,
2013-05-24 02:46:00,57.2,53.0,29.93,SE,134,0.0,3.0,86,0.00,,,0.00,WeatherCatV1.11B39,2013-05-24 06:46:00,
2013-05-24 02:51:00,57.1,53.3,29.93,ENE,58,0.0,1.0,87,0.00,,,0.00,WeatherCatV1.11B39,2013-05-24 06:51:00,
2013-05-24 02:55:00,57.1,53.3,29.93,ESE,105,0.0,1.0,87,0.00,,,0.00,WeatherCatV1.11B39,2013-05-24 06:55:00,
2013-05-24 03:00:00,57.1,53.3,29.93,SE,127,0.0,1.0,87,0.00,,,0.00,WeatherCatV1.11B39,2013-05-24 07:00:00,
2013-05-24 03:05:00,57.0,53.2,29.93,East,94,0.0,1.0,87,0.00,,,0.00,WeatherCatV1.11B39,2013-05-24 07:05:00,
2013-05-24 03:10:00,57.1,53.3,29.93,ESE,120,0.0,3.0,87,0.00,,,0.00,WeatherCatV1.11B39,2013-05-24 07:10:00,
2013-05-24 03:15:00,57.0,53.2,29.93,ESE,120,0.0,0.0,87,0.00,,,0.00,WeatherCatV1.11B39,2013-05-24 07:15:00,
2013-05-24 03:20:00,57.0,53.2,29.93,ESE,112,0.0,1.0,87,0.00,,,0.00,WeatherCatV1.11B39,2013-05-24 07:20:00,
2013-05-24 03:25:00,57.0,53.2,29.93,ESE,117,0.0,0.0,87,0.00,,,0.00,WeatherCatV1.11B39,2013-05-24 07:25:00,
2013-05-24 03:30:00,57.0,53.5,29.93,ESE,117,0.0,1.0,88,0.00,,,0.00,WeatherCatV1.11B39,2013-05-24 07:30:00,
2013-05-24 03:35:00,57.0,53.8,29.93,ESE,117,0.0,1.0,89,0.00,,,0.00,WeatherCatV1.11B39,2013-05-24 07:35:00,
2013-05-24 03:40:00,57.0,53.5,29.93,ESE,117,0.0,0.0,88,0.00,,,0.00,WeatherCatV1.11B39,2013-05-24 07:40:00,
2013-05-24 03:45:00,56.9,53.4,29.93,East,87,0.0,1.0,88,0.00,,,0.00,WeatherCatV1.11B39,2013-05-24 07:45:00,
2013-05-24 03:50:00,56.8,53.6,29.93,SE,125,0.0,0.0,89,0.00,,,0.00,WeatherCatV1.11B39,2013-05-24 07:50:00,
2013-05-24 03:55:00,56.7,53.2,29.93,SE,129,0.0,0.0,88,0.00,,,0.00,WeatherCatV1.11B39,2013-05-24 07:55:00,
2013-05-24 04:00:00,56.6,53.1,29.93,ESE,117,1.0,3.0,88,0.00,,,0.00,WeatherCatV1.11B39,2013-05-24 08:00:00,
2013-05-24 04:05:00,56.5,53.3,29.93,ESE,117,0.0,0.0,89,0.00,,,0.00,WeatherCatV1.11B39,2013-05-24 08:05:00,
2013-05-24 04:10:00,56.5,53.6,29.94,ESE,117,0.0,0.0,90,0.00,,,0.00,WeatherCatV1.11B39,2013-05-24 08:10:00,
2013-05-24 04:15:00,56.5,53.6,29.93,ESE,117,0.0,0.0,90,0.00,,,0.00,WeatherCatV1.11B39,2013-05-24 08:15:00,
2013-05-24 04:20:00,56.3,53.4,29.94,ESE,117,0.0,0.0,90,0.00,,,0.00,WeatherCatV1.11B39,2013-05-24 08:20:00,
2013-05-24 04:25:00,56.3,53.4,29.94,ESE,117,0.0,0.0,90,0.00,,,0.00,WeatherCatV1.11B39,2013-05-24 08:25:00,
2013-05-24 04:30:00,56.2,53.3,29.94,ESE,117,0.0,0.0,90,0.00,,,0.00,WeatherCatV1.11B39,2013-05-24 08:30:00,
2013-05-24 04:35:00,56.1,53.2,29.94,WSW,255,0.0,0.0,90,0.00,,,0.00,WeatherCatV1.11B39,2013-05-24 08:35:00,
2013-05-24 04:40:00,56.2,53.3,29.93,WSW,255,0.0,0.0,90,0.00,,,0.00,WeatherCatV1.11B39,2013-05-24 08:40:00,
2013-05-24 04:45:00,56.2,53.3,29.93,WSW,255,0.0,0.0,90,0.00,,,0.00,WeatherCatV1.11B39,2013-05-24 08:45:00,
2013-05-24 04:50:00,56.3,53.7,29.94,WSW,255,0.0,0.0,91,0.00,,,0.00,WeatherCatV1.11B39,2013-05-24 08:50:00,
2013-05-24 04:55:00,56.3,53.4,29.94,WSW,255,0.0,0.0,90,0.00,,,0.00,WeatherCatV1.11B39,2013-05-24 08:55:00,
2013-05-24 05:00:00,56.2,53.3,29.94,WSW,255,0.0,0.0,90,0.00,,,0.00,WeatherCatV1.11B39,2013-05-24 09:00:00,
2013-05-24 05:05:00,56.1,52.9,29.94,ENE,71,0.0,0.0,89,0.00,,,0.00,WeatherCatV1.11B39,2013-05-24 09:05:00,
2013-05-24 05:10:00,56.0,53.1,29.94,ENE,71,0.0,0.0,90,0.00,,,0.00,WeatherCatV1.11B39,2013-05-24 09:10:00,
2013-05-24 05:15:00,55.8,53.2,29.94,NW,316,0.0,1.0,91,0.00,,,0.00,WeatherCatV1.11B39,2013-05-24 09:15:00,
2013-05-24 05:20:00,55.6,53.0,29.95,NE,55,0.0,0.0,91,0.00,,,0.00,WeatherCatV1.11B39,2013-05-24 09:20:00,
2013-05-24 05:25:00,55.5,53.2,29.95,SE,139,0.0,0.0,92,0.00,,,0.00,WeatherCatV1.11B39,2013-05-24 09:25:00,
2013-05-24 05:30:00,55.5,53.2,29.94,SE,136,0.0,0.0,92,0.00,,,0.00,WeatherCatV1.11B39,2013-05-24 09:30:00,
2013-05-24 05:35:00,55.4,53.1,29.94,ESE,112,0.0,0.0,92,0.00,,,0.00,WeatherCatV1.11B39,2013-05-24 09:35:00,
2013-05-24 05:40:00,55.3,52.7,29.95,SE,128,0.0,2.0,91,0.00,,,0.00,WeatherCatV1.11B39,2013-05-24 09:40:00,
2013-05-24 05:45:00,55.2,52.6,29.95,WNW,293,0.0,1.0,91,0.00,,,0.00,WeatherCatV1.11B39,2013-05-24 09:45:00,
2013-05-24 05:50:00,55.2,52.6,29.94,East,86,0.0,1.0,91,0.00,,,0.00,WeatherCatV1.11B39,2013-05-24 09:50:00,
2013-05-24 05:55:00,55.1,52.2,29.95,ESE,117,0.0,4.0,90,0.00,,,0.00,WeatherCatV1.11B39,2013-05-24 09:55:00,
2013-05-24 06:00:00,55.1,52.5,29.95,ENE,61,0.0,1.0,91,0.00,,,0.00,WeatherCatV1.11B39,2013-05-24 10:00:00,
2013-05-24 06:05:00,55.0,52.1,29.95,NNE,16,1.0,2.0,90,0.00,,,0.00,WeatherCatV1.11B39,2013-05-24 10:05:00,
2013-05-24 06:10:00,54.9,52.3,29.95,ESE,113,0.0,1.0,91,0.00,,,0.00,WeatherCatV1.11B39,2013-05-24 10:10:00,
2013-05-24 06:15:00,54.7,52.1,29.95,NE,43,3.0,3.0,91,0.00,,,0.00,WeatherCatV1.11B39,2013-05-24 10:15:00,
2013-05-24 06:20:00,54.7,52.1,29.96,West,271,0.0,1.0,91,0.00,,,0.00,WeatherCatV1.11B39,2013-05-24 10:20:00,
2013-05-24 06:25:00,54.7,52.1,29.96,ENE,64,0.0,0.0,91,0.00,,,0.00,WeatherCatV1.11B39,2013-05-24 10:25:00,
2013-05-24 06:30:00,54.7,51.8,29.96,South,171,4.0,4.0,90,0.00,,,0.00,WeatherCatV1.11B39,2013-05-24 10:30:00,
2013-05-24 06:35:00,54.7,51.8,29.96,ESE,102,0.0,1.0,90,0.00,,,0.00,WeatherCatV1.11B39,2013-05-24 10:35:00,
2013-05-24 06:40:00,54.7,51.5,29.95,SW,233,3.0,4.0,89,0.00,,,0.00,WeatherCatV1.11B39,2013-05-24 10:40:00,
2013-05-24 06:45:00,54.8,51.9,29.96,ESE,109,0.0,2.0,90,0.00,,,0.00,WeatherCatV1.11B39,2013-05-24 10:45:00,
2013-05-24 06:50:00,54.8,51.9,29.96,NE,47,0.0,2.0,90,0.00,,,0.00,WeatherCatV1.11B39,2013-05-24 10:50:00,
2013-05-24 06:55:00,54.7,51.5,29.96,SSE,148,0.0,2.0,89,0.00,,,0.00,WeatherCatV1.11B39,2013-05-24 10:55:00,
2013-05-24 07:00:00,54.8,51.6,29.96,ENE,62,0.0,1.0,89,0.00,,,0.00,WeatherCatV1.11B39,2013-05-24 11:00:00,
2013-05-24 07:05:00,54.8,51.9,29.97,East,86,1.0,5.0,90,0.00,,,0.00,WeatherCatV1.11B39,2013-05-24 11:05:00,
2013-05-24 07:10:00,54.8,51.9,29.96,ESE,122,0.0,3.0,90,0.00,,,0.00,WeatherCatV1.11B39,2013-05-24 11:10:00,
2013-05-24 07:15:00,54.9,52.0,29.97,NNE,25,2.0,2.0,90,0.00,,,0.00,WeatherCatV1.11B39,2013-05-24 11:15:00,
2013-05-24 07:20:00,54.9,51.7,29.97,North,10,0.0,1.0,89,0.00,,,0.00,WeatherCatV1.11B39,2013-05-24 11:20:00,
2013-05-24 07:25:00,54.9,52.0,29.97,NE,43,0.0,2.0,90,0.00,,,0.00,WeatherCatV1.11B39,2013-05-24 11:25:00,
2013-05-24 07:30:00,55.0,52.1,29.97,SE,139,1.0,3.0,90,0.00,,,0.00,WeatherCatV1.11B39,2013-05-24 11:30:00,
2013-05-24 07:35:00,55.0,51.8,29.97,SE,140,1.0,5.0,89,0.00,,,0.00,WeatherCatV1.11B39,2013-05-24 11:35:00,
2013-05-24 07:40:00,55.1,51.6,29.98,WSW,240,4.0,7.0,88,0.00,,,0.00,WeatherCatV1.11B39,2013-05-24 11:40:00,
2013-05-24 07:45:00,55.1,51.6,29.98,North,8,1.0,2.0,88,0.00,,,0.00,WeatherCatV1.11B39,2013-05-24 11:45:00,
2013-05-24 07:50:00,55.1,51.3,29.98,SE,138,0.0,4.0,87,0.00,,,0.00,WeatherCatV1.11B39,2013-05-24 11:50:00,
2013-05-24 07:55:00,55.2,51.1,29.99,SE,137,0.0,5.0,86,0.00,,,0.00,WeatherCatV1.11B39,2013-05-24 11:55:00,
2013-05-24 08:00:00,55.3,51.5,29.99,ENE,70,0.0,3.0,87,0.00,,,0.00,WeatherCatV1.11B39,2013-05-24 12:00:00,
2013-05-24 08:05:00,55.3,51.2,29.99,South,182,1.0,3.0,86,0.00,,,0.00,WeatherCatV1.11B39,2013-05-24 12:05:00,
2013-05-24 08:10:00,55.3,50.9,29.99,NW,315,0.0,2.0,85,0.00,,,0.00,WeatherCatV1.11B39,2013-05-24 12:10:00,
2013-05-24 08:15:00,55.3,50.9,29.99,ENE,78,0.0,1.0,85,0.00,,,0.00,WeatherCatV1.11B39,2013-05-24 12:15:00,
2013-05-24 08:20:00,55.2,50.8,30.00,NNW,347,3.0,5.0,85,0.00,,,0.00,WeatherCatV1.11B39,2013-05-24 12:20:00,
2013-05-24 08:25:00,55.3,51.5,30.00,North,4,1.0,5.0,87,0.00,,,0.00,WeatherCatV1.11B39,2013-05-24 12:25:00,
2013-05-24 08:30:00,55.3,51.2,30.00,West,281,2.0,3.0,86,0.00,,,0.00,WeatherCatV1.11B39,2013-05-24 12:30:00,
2013-05-24 08:35:00,55.4,51.0,30.00,East,79,0.0,4.0,85,0.00,,,0.00,WeatherCatV1.11B39,2013-05-24 12:35:00,
2013-05-24 08:40:00,55.5,50.1,30.01,North,350,2.0,10.0,82,0.00,,,0.00,WeatherCatV1.11B39,2013-05-24 12:40:00,
2013-05-24 08:45:00,55.4,50.3,30.01,ESE,104,0.0,5.0,83,0.00,,,0.00,WeatherCatV1.11B39,2013-05-24 12:45:00,
2013-05-24 08:50:00,55.5,50.4,30.01,SW,214,4.0,4.0,83,0.00,,,0.00,WeatherCatV1.11B39,2013-05-24 12:50:00,
2013-05-24 08:55:00,55.6,49.9,30.01,ESE,117,1.0,2.0,81,0.00,,,0.00,WeatherCatV1.11B39,2013-05-24 12:55:00,
2013-05-24 09:00:00,55.6,49.5,30.02,WNW,282,0.0,3.0,80,0.00,,,0.00,WeatherCatV1.11B39,2013-05-24 13:00:00,
2013-05-24 09:05:00,55.8,49.7,30.02,ESE,113,3.0,9.0,80,0.00,,,0.00,WeatherCatV1.11B39,2013-05-24 13:05:00,
2013-05-24 09:10:00,56.3,49.2,30.02,ESE,117,0.0,4.0,77,0.00,,,0.00,WeatherCatV1.11B39,2013-05-24 13:10:00,
2013-05-24 09:15:00,56.4,48.9,30.03,NW,326,0.0,7.0,76,0.00,,,0.00,WeatherCatV1.11B39,2013-05-24 13:15:00,
2013-05-24 09:20:00,56.3,48.5,30.03,ESE,112,0.0,2.0,75,0.00,,,0.00,WeatherCatV1.11B39,2013-05-24 13:20:00,
2013-05-24 09:25:00,56.5,48.7,30.03,WSW,246,1.0,8.0,75,0.00,,,0.00,WeatherCatV1.11B39,2013-05-24 13:25:00,
2013-05-24 09:30:00,56.7,48.1,30.04,NW,314,4.0,8.0,73,0.00,,,0.00,WeatherCatV1.11B39,2013-05-24 13:30:00,
2013-05-24 09:35:00,56.6,49.1,30.04,WNW,286,5.0,5.0,76,0.00,,,0.00,WeatherCatV1.11B39,2013-05-24 13:35:00,
2013-05-24 09:40:00,56.8,48.6,30.04,SE,132,1.0,9.0,74,0.00,,,0.00,WeatherCatV1.11B39,2013-05-24 13:40:00,
2013-05-24 09:45:00,57.6,49.4,30.04,West,260,3.0,7.0,74,0.00,,,0.00,WeatherCatV1.11B39,2013-05-24 13:45:00,
2013-05-24 09:50:00,57.5,47.4,30.04,NNE,21,2.0,8.0,69,0.00,,,0.00,WeatherCatV1.11B39,2013-05-24 13:50:00,
2013-05-24 09:55:00,57.4,47.7,30.05,South,182,3.0,7.0,70,0.00,,,0.00,WeatherCatV1.11B39,2013-05-24 13:55:00,
2013-05-24 10:00:00,57.3,47.6,30.05,SW,236,4.0,6.0,70,0.00,,,0.00,WeatherCatV1.11B39,2013-05-24 14:00:00,
2013-05-24 10:05:00,56.8,46.0,30.06,WNW,297,4.0,11.0,67,0.00,,,0.00,WeatherCatV1.11B39,2013-05-24 14:05:00,
2013-05-24 10:10:00,56.5,46.1,30.05,ESE,106,1.0,8.0,68,0.00,,,0.00,WeatherCatV1.11B39,2013-05-24 14:10:00,
2013-05-24 10:15:00,56.5,46.5,30.05,NE,42,2.0,7.0,69,0.00,,,0.00,WeatherCatV1.11B39,2013-05-24 14:15:00,
2013-05-24 10:20:00,56.7,45.5,30.06,WSW,252,5.0,9.0,66,0.00,,,0.00,WeatherCatV1.11B39,2013-05-24 14:20:00,
2013-05-24 10:25:00,56.8,46.0,30.06,SE,135,1.0,4.0,67,0.00,,,0.00,WeatherCatV1.11B39,2013-05-24 14:25:00,
2013-05-24 10:30:00,56.7,45.5,30.06,NE,37,1.0,3.0,66,0.00,,,0.00,WeatherCatV1.11B39,2013-05-24 14:30:00,
2013-05-24 10:35:00,56.8,45.6,30.07,SSW,207,2.0,6.0,66,0.00,,,0.00,WeatherCatV1.11B39,2013-05-24 14:35:00,
2013-05-24 10:40:00,57.1,46.6,30.07,SSE,159,0.0,7.0,68,0.00,,,0.00,WeatherCatV1.11B39,2013-05-24 14:40:00,
2013-05-24 10:45:00,57.3,45.6,30.07,WSW,250,3.0,3.0,65,0.00,,,0.00,WeatherCatV1.11B39,2013-05-24 14:45:00,
2013-05-24 10:50:00,57.3,45.6,30.08,SE,142,2.0,8.0,65,0.00,,,0.00,WeatherCatV1.11B39,2013-05-24 14:50:00,
2013-05-24 10:55:00,56.8,44.8,30.08,NE,56,1.0,9.0,64,0.00,,,0.00,WeatherCatV1.11B39,2013-05-24 14:55:00,
2013-05-24 11:00:00,56.9,44.8,30.08,North,353,0.0,8.0,64,0.00,,,0.00,WeatherCatV1.11B39,2013-05-24 15:00:00,
2013-05-24 11:05:00,57.1,45.4,30.08,ESE,117,5.0,5.0,65,0.00,,,0.00,WeatherCatV1.11B39,2013-05-24 15:05:00,
2013-05-24 11:10:00,57.3,45.6,30.08,NW,321,2.0,6.0,65,0.00,,,0.00,WeatherCatV1.11B39,2013-05-24 15:10:00,
2013-05-24 11:15:00,57.3,44.8,30.09,ESE,113,0.0,6.0,63,0.00,,,0.00,WeatherCatV1.11B39,2013-05-24 15:15:00,
2013-05-24 11:20:00,56.9,44.4,30.10,NW,305,2.0,6.0,63,0.00,,,0.00,WeatherCatV1.11B39,2013-05-24 15:20:00,
2013-05-24 11:25:00,56.6,43.7,30.10,SE,129,0.0,10.0,62,0.00,,,0.00,WeatherCatV1.11B39,2013-05-24 15:25:00,
2013-05-24 11:30:00,56.7,43.4,30.10,SE,134,4.0,7.0,61,0.00,,,0.00,WeatherCatV1.11B39,2013-05-24 15:30:00,
2013-05-24 11:35:00,57.2,44.3,30.11,ENE,75,0.0,4.0,62,0.00,,,0.00,WeatherCatV1.11B39,2013-05-24 15:35:00,
2013-05-24 11:40:00,57.8,44.0,30.11,NW,323,1.0,7.0,60,0.00,,,0.00,WeatherCatV1.11B39,2013-05-24 15:40:00,
2013-05-24 11:45:00,57.5,43.7,30.11,SW,231,4.0,4.0,60,0.00,,,0.00,WeatherCatV1.11B39,2013-05-24 15:45:00,
2013-05-24 11:50:00,57.7,43.9,30.11,SSE,154,1.0,5.0,60,0.00,,,0.00,WeatherCatV1.11B39,2013-05-24 15:50:00,
2013-05-24 11:55:00,58.0,44.2,30.11,ESE,113,2.0,8.0,60,0.00,,,0.00,WeatherCatV1.11B39,2013-05-24 15:55:00,
2013-05-24 12:00:00,58.6,43.9,30.12,SE,143,1.0,4.0,58,0.00,,,0.00,WeatherCatV1.11B39,2013-05-24 16:00:00,
2013-05-24 12:05:00,58.5,43.3,30.12,East,101,1.0,4.0,57,0.00,,,0.00,WeatherCatV1.11B39,2013-05-24 16:05:00,
2013-05-24 12:10:00,58.7,44.0,30.11,NW,315,0.0,2.0,58,0.00,,,0.00,WeatherCatV1.11B39,2013-05-24 16:10:00,
2013-05-24 12:15:00,59.3,44.1,30.11,North,356,1.0,4.0,57,0.00,,,0.00,WeatherCatV1.11B39,2013-05-24 16:15:00,
2013-05-24 12:20:00,59.9,43.2,30.12,WNW,282,1.0,5.0,54,0.00,,,0.00,WeatherCatV1.11B39,2013-05-24 16:20:00,
2013-05-24 12:25:00,59.9,42.7,30.12,North,349,3.0,6.0,53,0.00,,,0.00,WeatherCatV1.11B39,2013-05-24 16:25:00,
2013-05-24 12:30:00,60.2,43.5,30.12,West,264,2.0,7.0,54,0.00,,,0.00,WeatherCatV1.11B39,2013-05-24 16:30:00,
2013-05-24 12:35:00,60.6,43.4,30.12,SSE,162,1.0,4.0,53,0.00,,,0.00,WeatherCatV1.11B39,2013-05-24 16:35:00,
2013-05-24 12:40:00,60.9,43.2,30.12,NW,307,2.0,5.0,52,0.00,,,0.00,WeatherCatV1.11B39,2013-05-24 16:40:00,
2013-05-24 12:45:00,60.9,42.6,30.12,ESE,113,0.0,3.0,51,0.00,,,0.00,WeatherCatV1.11B39,2013-05-24 16:45:00,
2013-05-24 12:50:00,61.6,43.3,30.13,SE,136,3.0,8.0,51,0.00,,,0.00,WeatherCatV1.11B39,2013-05-24 16:50:00,
2013-05-24 12:55:00,61.4,43.1,30.13,SSE,150,0.0,2.0,51,0.00,,,0.00,WeatherCatV1.11B39,2013-05-24 16:55:00,
2013-05-24 13:00:00,62.0,43.1,30.12,SSE,157,2.0,5.0,50,0.00,,,0.00,WeatherCatV1.11B39,2013-05-24 17:00:00,
2013-05-24 13:05:00,62.2,43.8,30.12,ENE,72,5.0,8.0,51,0.00,,,0.00,WeatherCatV1.11B39,2013-05-24 17:05:00,
2013-05-24 13:10:00,62.5,42.0,30.12,SW,214,1.0,6.0,47,0.00,,,0.00,WeatherCatV1.11B39,2013-05-24 17:10:00,
2013-05-24 13:15:00,62.0,43.7,30.12,South,179,3.0,7.0,51,0.00,,,0.00,WeatherCatV1.11B39,2013-05-24 17:15:00,
2013-05-24 13:20:00,62.1,43.2,30.13,WSW,251,5.0,7.0,50,0.00,,,0.00,WeatherCatV1.11B39,2013-05-24 17:20:00,
2013-05-24 13:25:00,62.0,43.7,30.13,SE,134,1.0,2.0,51,0.00,,,0.00,WeatherCatV1.11B39,2013-05-24 17:25:00,
2013-05-24 13:30:00,62.5,43.6,30.13,ESE,108,2.0,7.0,50,0.00,,,0.00,WeatherCatV1.11B39,2013-05-24 17:30:00,
2013-05-24 13:35:00,63.1,42.5,30.13,NNE,18,2.0,6.0,47,0.00,,,0.00,WeatherCatV1.11B39,2013-05-24 17:35:00,
2013-05-24 13:40:00,62.8,41.1,30.13,West,265,1.0,7.0,45,0.00,,,0.00,WeatherCatV1.11B39,2013-05-24 17:40:00,
2013-05-24 13:45:00,62.7,42.7,30.13,West,266,3.0,6.0,48,0.00,,,0.00,WeatherCatV1.11B39,2013-05-24 17:45:00,
2013-05-24 13:50:00,63.6,44.1,30.13,ESE,118,4.0,4.0,49,0.00,,,0.00,WeatherCatV1.11B39,2013-05-24 17:50:00,
2013-05-24 13:55:00,63.7,43.1,30.13,NNE,14,9.0,9.0,47,0.00,,,0.00,WeatherCatV1.11B39,2013-05-24 17:55:00,
2013-05-24 14:00:00,63.8,43.2,30.14,East,89,1.0,4.0,47,0.00,,,0.00,WeatherCatV1.11B39,2013-05-24 18:00:00,
2013-05-24 14:05:00,63.7,43.1,30.14,NW,310,2.0,3.0,47,0.00,,,0.00,WeatherCatV1.11B39,2013-05-24 18:05:00,
2013-05-24 14:10:00,64.1,44.0,30.13,ENE,58,6.0,8.0,48,0.00,,,0.00,WeatherCatV1.11B39,2013-05-24 18:10:00,
2013-05-24 14:15:00,64.1,42.9,30.13,WNW,295,3.0,5.0,46,0.00,,,0.00,WeatherCatV1.11B39,2013-05-24 18:15:00,
2013-05-24 14:20:00,63.4,41.7,30.13,ENE,73,0.0,7.0,45,0.00,,,0.00,WeatherCatV1.11B39,2013-05-24 18:20:00,
2013-05-24 14:25:00,63.1,42.0,30.14,ESE,103,1.0,8.0,46,0.00,,,0.00,WeatherCatV1.11B39,2013-05-24 18:25:00,
2013-05-24 14:30:00,63.7,41.4,30.13,SW,220,1.0,11.0,44,0.00,,,0.00,WeatherCatV1.11B39,2013-05-24 18:30:00,
2013-05-24 14:35:00,64.0,42.8,30.14,NE,51,0.0,6.0,46,0.00,,,0.00,WeatherCatV1.11B39,2013-05-24 18:35:00,
2013-05-24 14:40:00,64.2,41.2,30.14,WNW,288,4.0,10.0,43,0.00,,,0.00,WeatherCatV1.11B39,2013-05-24 18:40:00,
2013-05-24 14:45:00,63.9,41.6,30.14,SSW,197,3.0,3.0,44,0.00,,,0.00,WeatherCatV1.11B39,2013-05-24 18:45:00,
2013-05-24 14:50:00,63.9,42.7,30.13,ENE,61,2.0,9.0,46,0.00,,,0.00,WeatherCatV1.11B39,2013-05-24 18:50:00,
2013-05-24 14:55:00,64.8,41.2,30.13,North,355,5.0,5.0,42,0.00,,,0.00,WeatherCatV1.11B39,2013-05-24 18:55:00,
2013-05-24 15:00:00,65.2,40.9,30.13,ESE,103,1.0,8.0,41,0.00,,,0.00,WeatherCatV1.11B39,2013-05-24 19:00:00,
2013-05-24 15:05:00,65.0,42.0,30.14,WSW,242,0.0,4.0,43,0.00,,,0.00,WeatherCatV1.11B39,2013-05-24 19:05:00,
2013-05-24 15:10:00,64.7,41.7,30.14,WSW,238,1.0,4.0,43,0.00,,,0.00,WeatherCatV1.11B39,2013-05-24 19:10:00,
2013-05-24 15:15:00,64.7,42.9,30.14,West,266,2.0,3.0,45,0.00,,,0.00,WeatherCatV1.11B39,2013-05-24 19:15:00,
2013-05-24 15:20:00,65.3,42.8,30.14,North,4,2.0,2.0,44,0.00,,,0.00,WeatherCatV1.11B39,2013-05-24 19:20:00,
2013-05-24 15:25:00,65.3,41.0,30.14,SSW,193,1.0,10.0,41,0.00,,,0.00,WeatherCatV1.11B39,2013-05-24 19:25:00,
2013-05-24 15:30:00,64.6,41.6,30.14,South,179,2.0,7.0,43,0.00,,,0.00,WeatherCatV1.11B39,2013-05-24 19:30:00,
2013-05-24 15:35:00,65.0,41.3,30.14,NNE,26,0.0,5.0,42,0.00,,,0.00,WeatherCatV1.11B39,2013-05-24 19:35:00,
2013-05-24 15:40:00,65.0,41.3,30.14,NNE,18,4.0,10.0,42,0.00,,,0.00,WeatherCatV1.11B39,2013-05-24 19:40:00,
2013-05-24 15:45:00,65.0,42.5,30.14,SSE,158,3.0,4.0,44,0.00,,,0.00,WeatherCatV1.11B39,2013-05-24 19:45:00,
2013-05-24 15:50:00,65.0,43.1,30.14,North,11,4.0,4.0,45,0.00,,,0.00,WeatherCatV1.11B39,2013-05-24 19:50:00,
2013-05-24 15:55:00,66.2,41.8,30.14,ENE,76,0.0,4.0,41,0.00,,,0.00,WeatherCatV1.11B39,2013-05-24 19:55:00,
2013-05-24 16:00:00,65.5,40.5,30.14,West,272,1.0,6.0,40,0.00,,,0.00,WeatherCatV1.11B39,2013-05-24 20:00:00,
2013-05-24 16:05:00,64.8,39.9,30.14,ESE,112,7.0,8.0,40,0.00,,,0.00,WeatherCatV1.11B39,2013-05-24 20:05:00,
2013-05-24 16:10:00,64.6,40.4,30.14,SE,138,1.0,7.0,41,0.00,,,0.00,WeatherCatV1.11B39,2013-05-24 20:10:00,
2013-05-24 16:15:00,65.0,40.1,30.14,SE,132,1.0,5.0,40,0.00,,,0.00,WeatherCatV1.11B39,2013-05-24 20:15:00,
2013-05-24 16:20:00,64.4,40.8,30.14,East,88,0.0,2.0,42,0.00,,,0.00,WeatherCatV1.11B39,2013-05-24 20:20:00,
2013-05-24 16:25:00,64.3,39.5,30.14,NW,309,2.0,6.0,40,0.00,,,0.00,WeatherCatV1.11B39,2013-05-24 20:25:00,
2013-05-24 16:30:00,65.0,39.4,30.14,ENE,63,0.0,6.0,39,0.00,,,0.00,WeatherCatV1.11B39,2013-05-24 20:30:00,
2013-05-24 16:35:00,65.1,38.9,30.14,ESE,104,0.0,5.0,38,0.00,,,0.00,WeatherCatV1.11B39,2013-05-24 20:35:00,
2013-05-24 16:40:00,65.6,37.9,30.15,SSE,148,2.0,8.0,36,0.00,,,0.00,WeatherCatV1.11B39,2013-05-24 20:40:00,
2013-05-24 16:45:00,65.2,40.3,30.15,NNW,341,2.0,4.0,40,0.00,,,0.00,WeatherCatV1.11B39,2013-05-24 20:45:00,
2013-05-24 16:50:00,65.1,39.5,30.15,South,179,1.0,6.0,39,0.00,,,0.00,WeatherCatV1.11B39,2013-05-24 20:50:00,
2013-05-24 16:55:00,64.8,39.9,30.15,SE,131,0.0,6.0,40,0.00,,,0.00,WeatherCatV1.11B39,2013-05-24 20:55:00,
2013-05-24 17:00:00,64.8,39.3,30.15,NNW,334,1.0,5.0,39,0.00,,,0.00,WeatherCatV1.11B39,2013-05-24 21:00:00,
2013-05-24 17:05:00,64.1,39.3,30.15,SSW,200,5.0,6.0,40,0.00,,,0.00,WeatherCatV1.11B39,2013-05-24 21:05:00,
2013-05-24 17:10:00,63.8,38.4,30.15,SW,217,0.0,5.0,39,0.00,,,0.00,WeatherCatV1.11B39,2013-05-24 21:10:00,
2013-05-24 17:15:00,64.1,39.9,30.15,WSW,257,1.0,5.0,41,0.00,,,0.00,WeatherCatV1.11B39,2013-05-24 21:15:00,
2013-05-24 17:20:00,63.6,38.8,30.15,SW,219,2.0,5.0,40,0.00,,,0.00,WeatherCatV1.11B39,2013-05-24 21:20:00,
2013-05-24 17:25:00,63.4,39.3,30.15,ESE,116,0.0,6.0,41,0.00,,,0.00,WeatherCatV1.11B39,2013-05-24 21:25:00,
2013-05-24 17:30:00,63.0,39.5,30.16,SE,130,1.0,7.0,42,0.00,,,0.00,WeatherCatV1.11B39,2013-05-24 21:30:00,
2013-05-24 17:35:00,62.8,39.4,30.16,West,281,1.0,3.0,42,0.00,,,0.00,WeatherCatV1.11B39,2013-05-24 21:35:00,
2013-05-24 17:40:00,62.8,39.4,30.16,East,89,1.0,10.0,42,0.00,,,0.00,WeatherCatV1.11B39,2013-05-24 21:40:00,
2013-05-24 17:45:00,62.5,38.5,30.16,ENE,58,2.0,5.0,41,0.00,,,0.00,WeatherCatV1.11B39,2013-05-24 21:45:00,
2013-05-24 17:50:00,62.2,38.2,30.16,ESE,102,0.0,5.0,41,0.00,,,0.00,WeatherCatV1.11B39,2013-05-24 21:50:00,
2013-05-24 17:55:00,62.3,38.9,30.15,East,86,0.0,7.0,42,0.00,,,0.00,WeatherCatV1.11B39,2013-05-24 21:55:00,
2013-05-24 18:00:00,62.3,40.1,30.15,ESE,115,2.0,5.0,44,0.00,,,0.00,WeatherCatV1.11B39,2013-05-24 22:00:00,
2013-05-24 18:05:00,62.3,40.1,30.15,NW,308,0.0,3.0,44,0.00,,,0.00,WeatherCatV1.11B39,2013-05-24 22:05:00,
2013-05-24 18:10:00,62.4,40.8,30.15,East,86,0.0,3.0,45,0.00,,,0.00,WeatherCatV1.11B39,2013-05-24 22:10:00,
2013-05-24 18:15:00,62.2,38.2,30.16,ESE,120,0.0,2.0,41,0.00,,,0.00,WeatherCatV1.11B39,2013-05-24 22:15:00,
2013-05-24 18:20:00,62.1,37.5,30.15,SSE,159,0.0,3.0,40,0.00,,,0.00,WeatherCatV1.11B39,2013-05-24 22:20:00,
2013-05-24 18:25:00,62.0,37.4,30.16,SE,139,2.0,9.0,40,0.00,,,0.00,WeatherCatV1.11B39,2013-05-24 22:25:00,
2013-05-24 18:30:00,61.6,38.3,30.15,ESE,115,0.0,3.0,42,0.00,,,0.00,WeatherCatV1.11B39,2013-05-24 22:30:00,
2013-05-24 18:35:00,61.6,38.9,30.16,SSE,150,7.0,7.0,43,0.00,,,0.00,WeatherCatV1.11B39,2013-05-24 22:35:00,
2013-05-24 18:40:00,61.5,38.8,30.16,SSE,159,5.0,7.0,43,0.00,,,0.00,WeatherCatV1.11B39,2013-05-24 22:40:00,
2013-05-24 18:45:00,61.6,38.3,30.16,North,349,1.0,5.0,42,0.00,,,0.00,WeatherCatV1.11B39,2013-05-24 22:45:00,
2013-05-24 18:50:00,61.5,38.8,30.16,NNW,334,2.0,7.0,43,0.00,,,0.00,WeatherCatV1.11B39,2013-05-24 22:50:00,
2013-05-24 18:55:00,61.3,38.6,30.15,ENE,60,1.0,4.0,43,0.00,,,0.00,WeatherCatV1.11B39,2013-05-24 22:55:00,
2013-05-24 19:00:00,61.3,40.3,30.15,ESE,113,0.0,4.0,46,0.00,,,0.00,WeatherCatV1.11B39,2013-05-24 23:00:00,
2013-05-24 19:05:00,61.1,39.6,30.15,ENE,74,0.0,2.0,45,0.00,,,0.00,WeatherCatV1.11B39,2013-05-24 23:05:00,
2013-05-24 19:10:00,61.1,39.6,30.15,South,187,2.0,8.0,45,0.00,,,0.00,WeatherCatV1.11B39,2013-05-24 23:10:00,
2013-05-24 19:15:00,60.8,39.9,30.15,ESE,120,1.0,3.0,46,0.00,,,0.00,WeatherCatV1.11B39,2013-05-24 23:15:00,
2013-05-24 19:20:00,60.7,40.3,30.15,North,353,1.0,4.0,47,0.00,,,0.00,WeatherCatV1.11B39,2013-05-24 23:20:00,
2013-05-24 19:25:00,60.5,39.6,30.16,SSE,150,0.0,6.0,46,0.00,,,0.00,WeatherCatV1.11B39,2013-05-24 23:25:00,
2013-05-24 19:30:00,60.4,39.5,30.16,WSW,249,4.0,6.0,46,0.00,,,0.00,WeatherCatV1.11B39,2013-05-24 23:30:00,
2013-05-24 19:35:00,60.2,39.3,30.16,SE,131,1.0,1.0,46,0.00,,,0.00,WeatherCatV1.11B39,2013-05-24 23:35:00,
2013-05-24 19:40:00,60.0,39.7,30.16,NNE,25,1.0,7.0,47,0.00,,,0.00,WeatherCatV1.11B39,2013-05-24 23:40:00,
2013-05-24 19:45:00,59.8,40.1,30.17,SE,137,2.0,7.0,48,0.00,,,0.00,WeatherCatV1.11B39,2013-05-24 23:45:00,
2013-05-24 19:50:00,59.6,39.3,30.16,ESE,115,2.0,5.0,47,0.00,,,0.00,WeatherCatV1.11B39,2013-05-24 23:50:00,
2013-05-24 19:55:00,59.4,39.2,30.17,NE,34,2.0,2.0,47,0.00,,,0.00,WeatherCatV1.11B39,2013-05-24 23:55:00,
2013-05-24 20:00:00,59.2,39.0,30.17,WSW,237,1.0,2.0,47,0.00,,,0.00,WeatherCatV1.11B39,2013-05-25 00:00:00,
2013-05-24 20:05:00,59.0,39.3,30.17,NE,39,2.0,6.0,48,0.00,,,0.00,WeatherCatV1.11B39,2013-05-25 00:05:00,
2013-05-24 20:10:00,58.8,38.1,30.17,East,80,1.0,5.0,46,0.00,,,0.00,WeatherCatV1.11B39,2013-05-25 00:10:00,
2013-05-24 20:15:00,58.6,37.3,30.17,NE,55,1.0,4.0,45,0.00,,,0.00,WeatherCatV1.11B39,2013-05-25 00:15:00,
2013-05-24 20:20:00,58.4,38.2,30.17,SSE,152,0.0,2.0,47,0.00,,,0.00,WeatherCatV1.11B39,2013-05-25 00:20:00,
2013-05-24 20:25:00,58.2,36.4,30.17,ENE,57,2.0,3.0,44,0.00,,,0.00,WeatherCatV1.11B39,2013-05-25 00:25:00,
2013-05-24 20:30:00,58.0,35.6,30.18,NW,304,1.0,4.0,43,0.00,,,0.00,WeatherCatV1.11B39,2013-05-25 00:30:00,
2013-05-24 20:35:00,57.7,35.4,30.18,ESE,103,0.0,1.0,43,0.00,,,0.00,WeatherCatV1.11B39,2013-05-25 00:35:00,
2013-05-24 20:41:00,57.5,35.8,30.18,SE,134,0.0,1.0,44,0.00,,,0.00,WeatherCatV1.11B39,2013-05-25 00:41:00,
2013-05-24 20:46:00,57.3,35.6,30.18,East,96,0.0,1.0,44,0.00,,,0.00,WeatherCatV1.11B39,2013-05-25 00:46:00,
2013-05-24 20:51:00,57.1,36.0,30.18,SE,136,0.0,1.0,45,0.00,,,0.00,WeatherCatV1.11B39,2013-05-25 00:51:00,
2013-05-24 20:56:00,56.8,36.2,30.18,East,91,0.0,2.0,46,0.00,,,0.00,WeatherCatV1.11B39,2013-05-25 00:56:00,
2013-05-24 21:01:00,56.4,38.0,30.18,East,91,0.0,1.0,50,0.00,,,0.00,WeatherCatV1.11B39,2013-05-25 01:01:00,
2013-05-24 21:06:00,55.9,38.0,30.18,East,91,0.0,1.0,51,0.00,,,0.00,WeatherCatV1.11B39,2013-05-25 01:06:00,
2013-05-24 21:11:00,55.4,37.6,30.18,East,91,0.0,1.0,51,0.00,,,0.00,WeatherCatV1.11B39,2013-05-25 01:11:00,
2013-05-24 21:16:00,55.0,37.7,30.18,East,91,0.0,0.0,52,0.00,,,0.00,WeatherCatV1.11B39,2013-05-25 01:16:00,
2013-05-24 21:21:00,54.7,37.9,30.19,East,91,0.0,1.0,53,0.00,,,0.00,WeatherCatV1.11B39,2013-05-25 01:21:00,
2013-05-24 21:26:00,54.5,37.7,30.19,East,91,0.0,0.0,53,0.00,,,0.00,WeatherCatV1.11B39,2013-05-25 01:26:00,
2013-05-24 21:31:00,54.3,37.5,30.19,East,91,0.0,0.0,53,0.00,,,0.00,WeatherCatV1.11B39,2013-05-25 01:31:00,
2013-05-24 21:36:00,54.0,37.7,30.19,East,91,0.0,0.0,54,0.00,,,0.00,WeatherCatV1.11B39,2013-05-25 01:36:00,
2013-05-24 21:41:00,53.9,39.0,30.19,East,91,0.0,0.0,57,0.00,,,0.00,WeatherCatV1.11B39,2013-05-25 01:41:00,
2013-05-24 21:46:00,53.6,38.3,30.19,East,91,0.0,0.0,56,0.00,,,0.00,WeatherCatV1.11B39,2013-05-25 01:46:00,
2013-05-24 21:51:00,53.4,37.6,30.19,East,91,0.0,0.0,55,0.00,,,0.00,WeatherCatV1.11B39,2013-05-25 01:51:00,
2013-05-24 21:56:00,53.2,38.8,30.20,East,91,0.0,0.0,58,0.00,,,0.00,WeatherCatV1.11B39,2013-05-25 01:56:00,
2013-05-24 22:01:00,53.0,37.7,30.20,East,91,0.0,0.0,56,0.00,,,0.00,WeatherCatV1.11B39,2013-05-25 02:01:00,
2013-05-24 22:06:00,52.9,38.5,30.20,East,91,0.0,0.0,58,0.00,,,0.00,WeatherCatV1.11B39,2013-05-25 02:06:00,
2013-05-24 22:11:00,52.8,38.9,30.20,East,91,0.0,0.0,59,0.00,,,0.00,WeatherCatV1.11B39,2013-05-25 02:11:00,
2013-05-24 22:16:00,52.8,37.5,30.20,East,91,0.0,0.0,56,0.00,,,0.00,WeatherCatV1.11B39,2013-05-25 02:16:00,
2013-05-24 22:21:00,52.8,38.0,30.20,East,91,0.0,0.0,57,0.00,,,0.00,WeatherCatV1.11B39,2013-05-25 02:21:00,
2013-05-24 22:26:00,52.7,38.8,30.20,East,91,0.0,0.0,59,0.00,,,0.00,WeatherCatV1.11B39,2013-05-25 02:26:00,
2013-05-24 22:31:00,52.8,38.0,30.20,East,91,0.0,0.0,57,0.00,,,0.00,WeatherCatV1.11B39,2013-05-25 02:31:00,
2013-05-24 22:36:00,52.7,37.9,30.20,East,91,0.0,0.0,57,0.00,,,0.00,WeatherCatV1.11B39,2013-05-25 02:36:00,
2013-05-24 22:41:00,52.4,38.5,30.20,East,91,0.0,0.0,59,0.00,,,0.00,WeatherCatV1.11B39,2013-05-25 02:41:00,
2013-05-24 22:46:00,52.3,39.7,30.21,East,91,0.0,0.0,62,0.00,,,0.00,WeatherCatV1.11B39,2013-05-25 02:46:00,
2013-05-24 22:51:00,52.0,39.0,30.21,East,91,0.0,0.0,61,0.00,,,0.00,WeatherCatV1.11B39,2013-05-25 02:51:00,
2013-05-24 22:56:00,51.6,39.4,30.21,East,91,0.0,0.0,63,0.00,,,0.00,WeatherCatV1.11B39,2013-05-25 02:56:00,
2013-05-24 23:01:00,51.4,39.6,30.21,East,91,0.0,0.0,64,0.00,,,0.00,WeatherCatV1.11B39,2013-05-25 03:01:00,
2013-05-24 23:06:00,51.1,38.9,30.22,East,91,0.0,0.0,63,0.00,,,0.00,WeatherCatV1.11B39,2013-05-25 03:06:00,
2013-05-24 23:11:00,50.8,39.9,30.22,East,91,0.0,0.0,66,0.00,,,0.00,WeatherCatV1.11B39,2013-05-25 03:11:00,
2013-05-24 23:16:00,50.6,39.3,30.22,East,91,0.0,0.0,65,0.00,,,0.00,WeatherCatV1.11B39,2013-05-25 03:16:00,
2013-05-24 23:21:00,50.3,39.0,30.22,East,91,0.0,0.0,65,0.00,,,0.00,WeatherCatV1.11B39,2013-05-25 03:21:00,
2013-05-24 23:26:00,50.3,38.6,30.22,SSE,157,0.0,0.0,64,0.00,,,0.00,WeatherCatV1.11B39,2013-05-25 03:26:00,
2013-05-24 23:31:00,50.3,39.0,30.22,SSE,157,0.0,0.0,65,0.00,,,0.00,WeatherCatV1.11B39,2013-05-25 03:31:00,
2013-05-24 23:36:00,50.3,38.6,30.22,ESE,110,0.0,0.0,64,0.00,,,0.00,WeatherCatV1.11B39,2013-05-25 03:36:00,
2013-05-24 23:41:00,50.2,38.9,30.22,ESE,110,0.0,0.0,65,0.00,,,0.00,WeatherCatV1.11B39,2013-05-25 03:41:00,
2013-05-24 23:46:00,50.2,39.7,30.22,ESE,110,0.0,0.0,67,0.00,,,0.00,WeatherCatV1.11B39,2013-05-25 03:46:00,
2013-05-24 23:51:00,50.0,39.5,30.22,ESE,110,0.0,0.0,67,0.00,,,0.00,WeatherCatV1.11B39,2013-05-25 03:51:00,
2013-05-24 23:56:00,49.7,39.9,30.23,ESE,110,0.0,0.0,69,0.00,,,0.00,WeatherCatV1.11B39,2013-05-25 03:56:00,